SYR weather

Syracuse Hancock International Airport
Syracuse, New York, United States

Public forecast

Using degrees Fahrenheit for public forecast. Weather courtesy of forecast.io.

Current aviation weather report (METAR) for Syracuse Hancock International Airport

Retrieved 2019/10/17 00:54 UTC (55 minutes ago):

KSYR 170054Z 26005KT 6SM -RA BR FEW009 SCT016 OVC050 10/09 A2951 RMK AO2 SLP988 P0011 T01000089

Aviation forecast (TAF) for Syracuse Hancock International Airport

Retrieved 2019-10-17 00:42 UTC (1 hour ago):

TAF KSYR 162338Z 1700/1724 27008KT 4SM RA OVC015 FM170200 28005KT 4SM BR OVC025 FM170900 29010G19KT P6SM OVC015 FM171200 29013G26KT 3SM SHRA OVC015 FM171800 31012G23KT 2SM SHRA OVC008 FM172200 31013G25KT 4SM SHRA OVC015